ARG1421 SAME-SABE
Flight info
| Callsign | ARG1421 |
|---|---|
| Flight time | 1h 35m |
| Altitude | 37000 |
| Route | KAMUV2C KAMUV UT670 SNT SNT8Q |
| Aircraft | B738/M-MSDFGHILRVWS/LB1 |
Departure
| Time | 2026-05-09 22:19 |
|---|---|
| Airport | Governor Francisco Gabrielli International Airport (SAME) |
Arrival
| Time | 2026-05-09 23:55 |
|---|---|
| Airport | Aeroparque Jorge Newbery (SABE) |
| Time | Latitude | Longitude | Altitude | Speed | Heading |
|---|---|---|---|---|---|
| 2026-05-09 21:30 | -32.82801 | -68.79775 | 2308 ft | 0 kts | 271° |
| 2026-05-09 22:07 | -32.82802 | -68.79765 | 2308 ft | 3 kts | 272° |
| 2026-05-09 22:07 | -32.82802 | -68.79741 | 2308 ft | 3 kts | 268° |
| 2026-05-09 22:07 | -32.82800 | -68.79719 | 2308 ft | 3 kts | 238° |
| 2026-05-09 22:08 | -32.82791 | -68.79709 | 2313 ft | 3 kts | 185° |
| 2026-05-09 22:08 | -32.82770 | -68.79707 | 2308 ft | 3 kts | 180° |
| 2026-05-09 22:08 | -32.82757 | -68.79707 | 2310 ft | 0 kts | 181° |
| 2026-05-09 22:14 | -32.82779 | -68.79708 | 2281 ft | 8 kts | 181° |
| 2026-05-09 22:14 | -32.82846 | -68.79709 | 2281 ft | 10 kts | 181° |
| 2026-05-09 22:15 | -32.82915 | -68.79710 | 2281 ft | 10 kts | 181° |
| 2026-05-09 22:15 | -32.82938 | -68.79657 | 2281 ft | 9 kts | 85° |
| 2026-05-09 22:15 | -32.82958 | -68.79593 | 2283 ft | 9 kts | 137° |
| 2026-05-09 22:15 | -32.83003 | -68.79547 | 2281 ft | 9 kts | 140° |
| 2026-05-09 22:16 | -32.83100 | -68.79512 | 2281 ft | 20 kts | 180° |
| 2026-05-09 22:16 | -32.83243 | -68.79514 | 2283 ft | 20 kts | 180° |
| 2026-05-09 22:16 | -32.83383 | -68.79517 | 2281 ft | 20 kts | 181° |
| 2026-05-09 22:16 | -32.83520 | -68.79521 | 2281 ft | 19 kts | 181° |
| 2026-05-09 22:17 | -32.83651 | -68.79524 | 2281 ft | 19 kts | 181° |
| 2026-05-09 22:17 | -32.83779 | -68.79526 | 2281 ft | 18 kts | 181° |
| 2026-05-09 22:17 | -32.83902 | -68.79529 | 2281 ft | 17 kts | 181° |
| 2026-05-09 22:17 | -32.84017 | -68.79531 | 2281 ft | 15 kts | 179° |
| 2026-05-09 22:18 | -32.84111 | -68.79482 | 2281 ft | 14 kts | 162° |
| 2026-05-09 22:18 | -32.84202 | -68.79446 | 2282 ft | 14 kts | 162° |
| 2026-05-09 22:18 | -32.84268 | -68.79377 | 2283 ft | 13 kts | 105° |
| 2026-05-09 22:18 | -32.84192 | -68.79311 | 2284 ft | 32 kts | 359° |
| 2026-05-09 22:19 | -32.83725 | -68.79303 | 2281 ft | 103 kts | 1° |
| 2026-05-09 22:19 | -32.82795 | -68.79288 | 2342 ft | 155 kts | 0° |
| 2026-05-09 22:19 | -32.81688 | -68.79287 | 2998 ft | 167 kts | 0° |
| 2026-05-09 22:19 | -32.80506 | -68.79274 | 3744 ft | 173 kts | 0° |
| 2026-05-09 22:20 | -32.79213 | -68.79259 | 4084 ft | 198 kts | 1° |
| 2026-05-09 22:20 | -32.77752 | -68.79230 | 4273 ft | 222 kts | 2° |
| 2026-05-09 22:20 | -32.76244 | -68.78683 | 4673 ft | 237 kts | 33° |
| 2026-05-09 22:20 | -32.75183 | -68.77145 | 5196 ft | 252 kts | 66° |
| 2026-05-09 22:21 | -32.74735 | -68.75097 | 5949 ft | 259 kts | 78° |
| 2026-05-09 22:21 | -32.74435 | -68.72967 | 6750 ft | 265 kts | 81° |
| 2026-05-09 22:21 | -32.74134 | -68.70782 | 7479 ft | 270 kts | 82° |
| 2026-05-09 22:21 | -32.73811 | -68.68578 | 8295 ft | 272 kts | 81° |
| 2026-05-09 22:22 | -32.73472 | -68.66346 | 9126 ft | 275 kts | 81° |
| 2026-05-09 22:22 | -32.73123 | -68.64089 | 9887 ft | 280 kts | 81° |
| 2026-05-09 22:22 | -32.73030 | -68.61777 | 10527 ft | 285 kts | 101° |
| 2026-05-09 22:22 | -32.73476 | -68.59397 | 10762 ft | 308 kts | 106° |
| 2026-05-09 22:23 | -32.74020 | -68.56831 | 10960 ft | 332 kts | 106° |
| 2026-05-09 22:23 | -32.74597 | -68.54102 | 11327 ft | 347 kts | 106° |
| 2026-05-09 22:23 | -32.75177 | -68.51295 | 11969 ft | 352 kts | 106° |
| 2026-05-09 22:23 | -32.75752 | -68.48449 | 12732 ft | 355 kts | 106° |
| 2026-05-09 22:24 | -32.76324 | -68.45586 | 13512 ft | 358 kts | 106° |
| 2026-05-09 22:24 | -32.76898 | -68.42693 | 14276 ft | 362 kts | 107° |
| 2026-05-09 22:24 | -32.77476 | -68.39770 | 14978 ft | 364 kts | 107° |
| 2026-05-09 22:24 | -32.78056 | -68.36829 | 15756 ft | 365 kts | 108° |
| 2026-05-09 22:25 | -32.78637 | -68.33881 | 16524 ft | 367 kts | 108° |
| 2026-05-09 22:25 | -32.79220 | -68.30921 | 17263 ft | 369 kts | 109° |
| 2026-05-09 22:25 | -32.79799 | -68.27979 | 17967 ft | 371 kts | 109° |
| 2026-05-09 22:25 | -32.80395 | -68.24944 | 18662 ft | 374 kts | 109° |
| 2026-05-09 22:26 | -32.80693 | -68.23425 | 18959 ft | 375 kts | 109° |
| 2026-05-09 22:28 | -32.81035 | -68.21683 | 19286 ft | 377 kts | 109° |
| 2026-05-09 22:28 | -32.81633 | -68.18632 | 19853 ft | 381 kts | 110° |
| 2026-05-09 22:28 | -32.82234 | -68.15557 | 20441 ft | 383 kts | 110° |
| 2026-05-09 22:29 | -32.82839 | -68.12457 | 21026 ft | 385 kts | 110° |
| 2026-05-09 22:29 | -32.83448 | -68.09336 | 21564 ft | 389 kts | 110° |
| 2026-05-09 22:29 | -32.84054 | -68.06224 | 22085 ft | 393 kts | 110° |
| 2026-05-09 22:29 | -32.84672 | -68.03044 | 22609 ft | 396 kts | 110° |
| 2026-05-09 22:30 | -32.85294 | -67.99838 | 23128 ft | 399 kts | 110° |
| 2026-05-09 22:30 | -32.85922 | -67.96601 | 23638 ft | 403 kts | 110° |
| 2026-05-09 22:30 | -32.86553 | -67.93337 | 24118 ft | 406 kts | 110° |
| 2026-05-09 22:30 | -32.87187 | -67.90050 | 24548 ft | 408 kts | 110° |
| 2026-05-09 22:31 | -32.87830 | -67.86715 | 25033 ft | 409 kts | 110° |
| 2026-05-09 22:31 | -32.88465 | -67.83410 | 25507 ft | 410 kts | 110° |
| 2026-05-09 22:31 | -32.89100 | -67.80105 | 25958 ft | 412 kts | 110° |
| 2026-05-09 22:31 | -32.89739 | -67.76777 | 26387 ft | 413 kts | 111° |
| 2026-05-09 22:32 | -32.90382 | -67.73428 | 26815 ft | 415 kts | 111° |
| 2026-05-09 22:32 | -32.91026 | -67.70068 | 27231 ft | 417 kts | 111° |
| 2026-05-09 22:32 | -32.91669 | -67.66743 | 27630 ft | 418 kts | 111° |
| 2026-05-09 22:32 | -32.92331 | -67.63363 | 28016 ft | 420 kts | 111° |
| 2026-05-09 22:33 | -32.92998 | -67.59961 | 28364 ft | 423 kts | 111° |
| 2026-05-09 22:33 | -32.93676 | -67.56501 | 28736 ft | 425 kts | 111° |
| 2026-05-09 22:33 | -32.94337 | -67.53110 | 29165 ft | 426 kts | 111° |
| 2026-05-09 22:33 | -32.95005 | -67.49668 | 29653 ft | 425 kts | 111° |
| 2026-05-09 22:34 | -32.95670 | -67.46238 | 30047 ft | 426 kts | 111° |
| 2026-05-09 22:34 | -32.96340 | -67.42782 | 30371 ft | 428 kts | 112° |
| 2026-05-09 22:34 | -32.97009 | -67.39325 | 30699 ft | 429 kts | 112° |
| 2026-05-09 22:34 | -32.97673 | -67.35875 | 31101 ft | 427 kts | 112° |
| 2026-05-09 22:35 | -32.98334 | -67.32438 | 31520 ft | 425 kts | 112° |
| 2026-05-09 22:35 | -32.98995 | -67.28996 | 31888 ft | 425 kts | 112° |
| 2026-05-09 22:35 | -32.99655 | -67.25560 | 32235 ft | 425 kts | 112° |
| 2026-05-09 22:35 | -33.00311 | -67.22139 | 32588 ft | 424 kts | 112° |
| 2026-05-09 22:36 | -33.00960 | -67.18735 | 33313 ft | 415 kts | 112° |
| 2026-05-09 22:36 | -33.01590 | -67.15413 | 33886 ft | 410 kts | 113° |
| 2026-05-09 22:36 | -33.02229 | -67.12078 | 34070 ft | 414 kts | 113° |
| 2026-05-09 22:36 | -33.02869 | -67.08756 | 34224 ft | 417 kts | 113° |
| 2026-05-09 22:37 | -33.03515 | -67.05378 | 34532 ft | 417 kts | 113° |
| 2026-05-09 22:37 | -33.04160 | -67.01976 | 34900 ft | 414 kts | 113° |
| 2026-05-09 22:37 | -33.04786 | -66.98668 | 35173 ft | 414 kts | 113° |
| 2026-05-09 22:37 | -33.05423 | -66.95313 | 35361 ft | 416 kts | 113° |
| 2026-05-09 22:38 | -33.06062 | -66.91936 | 35600 ft | 417 kts | 113° |
| 2026-05-09 22:38 | -33.06698 | -66.88569 | 35956 ft | 416 kts | 113° |
| 2026-05-09 22:38 | -33.07194 | -66.85927 | 36309 ft | 412 kts | 114° |
| 2026-05-09 22:39 | -33.08080 | -66.81214 | 36777 ft | 409 kts | 114° |
| 2026-05-09 22:40 | -33.08527 | -66.78857 | 36909 ft | 410 kts | 114° |
| 2026-05-09 22:40 | -33.09161 | -66.75523 | 37083 ft | 412 kts | 114° |
| 2026-05-09 22:40 | -33.09794 | -66.72190 | 37284 ft | 413 kts | 114° |
| 2026-05-09 22:41 | -33.11061 | -66.65497 | 37383 ft | 418 kts | 114° |
| 2026-05-09 22:41 | -33.12328 | -66.58739 | 37377 ft | 414 kts | 114° |
| 2026-05-09 22:42 | -33.13566 | -66.52086 | 37379 ft | 406 kts | 114° |
| 2026-05-09 22:42 | -33.14779 | -66.45582 | 37373 ft | 400 kts | 114° |
| 2026-05-09 22:43 | -33.16001 | -66.39077 | 37388 ft | 407 kts | 114° |
| 2026-05-09 22:43 | -33.17243 | -66.32421 | 37373 ft | 413 kts | 114° |
| 2026-05-09 22:44 | -33.18485 | -66.25693 | 37388 ft | 417 kts | 114° |
| 2026-05-09 22:44 | -33.19717 | -66.18974 | 37374 ft | 407 kts | 114° |
| 2026-05-09 22:45 | -33.20914 | -66.12456 | 37382 ft | 400 kts | 114° |
| 2026-05-09 22:45 | -33.22110 | -66.05966 | 37398 ft | 400 kts | 114° |
| 2026-05-09 22:46 | -33.23305 | -65.99452 | 37402 ft | 401 kts | 114° |
| 2026-05-09 22:47 | -33.24046 | -65.95403 | 37401 ft | 401 kts | 114° |
| 2026-05-09 22:47 | -33.24557 | -65.92604 | 37463 ft | 402 kts | 114° |
| 2026-05-09 22:48 | -33.25765 | -65.85971 | 37409 ft | 404 kts | 114° |
| 2026-05-09 22:48 | -33.26763 | -65.80465 | 37398 ft | 405 kts | 114° |
| 2026-05-09 22:49 | -33.27945 | -65.73925 | 37394 ft | 405 kts | 114° |
| 2026-05-09 22:49 | -33.29131 | -65.67341 | 37395 ft | 405 kts | 114° |
| 2026-05-09 22:50 | -33.30320 | -65.60717 | 37430 ft | 405 kts | 114° |
| 2026-05-09 22:50 | -33.31493 | -65.54168 | 37406 ft | 405 kts | 114° |
| 2026-05-09 22:51 | -33.32669 | -65.47581 | 37386 ft | 405 kts | 114° |
| 2026-05-09 22:51 | -33.33840 | -65.40995 | 37389 ft | 403 kts | 114° |
| 2026-05-09 22:52 | -33.35004 | -65.34432 | 37386 ft | 402 kts | 114° |
| 2026-05-09 22:52 | -33.36151 | -65.27911 | 37426 ft | 402 kts | 113° |
| 2026-05-09 22:53 | -33.37287 | -65.21318 | 37393 ft | 402 kts | 113° |
| 2026-05-09 22:53 | -33.38401 | -65.14807 | 37387 ft | 401 kts | 113° |
| 2026-05-09 22:54 | -33.39523 | -65.08235 | 37378 ft | 400 kts | 113° |
| 2026-05-09 22:54 | -33.40628 | -65.01755 | 37382 ft | 399 kts | 113° |
| 2026-05-09 22:55 | -33.41738 | -64.95231 | 37380 ft | 399 kts | 112° |
| 2026-05-09 22:55 | -33.42850 | -64.88675 | 37379 ft | 400 kts | 112° |
| 2026-05-09 22:56 | -33.43952 | -64.82162 | 37381 ft | 402 kts | 112° |
| 2026-05-09 22:56 | -33.45059 | -64.75586 | 37376 ft | 403 kts | 112° |
| 2026-05-09 22:57 | -33.46166 | -64.68989 | 37365 ft | 405 kts | 112° |
| 2026-05-09 22:57 | -33.47272 | -64.62374 | 37367 ft | 406 kts | 112° |
| 2026-05-09 22:58 | -33.48379 | -64.55730 | 37364 ft | 406 kts | 112° |
| 2026-05-09 22:58 | -33.49480 | -64.49095 | 37362 ft | 407 kts | 112° |
| 2026-05-09 22:59 | -33.50581 | -64.42439 | 37348 ft | 407 kts | 112° |
| 2026-05-09 22:59 | -33.51678 | -64.35782 | 37402 ft | 407 kts | 112° |
| 2026-05-09 23:00 | -33.52774 | -64.29119 | 37362 ft | 408 kts | 112° |
| 2026-05-09 23:00 | -33.53857 | -64.22497 | 37351 ft | 407 kts | 112° |
| 2026-05-09 23:01 | -33.54942 | -64.15842 | 37354 ft | 406 kts | 112° |
| 2026-05-09 23:01 | -33.56022 | -64.09199 | 37349 ft | 405 kts | 112° |
| 2026-05-09 23:02 | -33.57095 | -64.02575 | 37370 ft | 405 kts | 112° |
| 2026-05-09 23:02 | -33.58166 | -63.95947 | 37357 ft | 404 kts | 112° |
| 2026-05-09 23:03 | -33.59226 | -63.89361 | 37347 ft | 404 kts | 112° |
| 2026-05-09 23:03 | -33.60284 | -63.82760 | 37347 ft | 403 kts | 112° |
| 2026-05-09 23:04 | -33.61346 | -63.76109 | 37347 ft | 403 kts | 112° |
| 2026-05-09 23:04 | -33.62391 | -63.69547 | 37348 ft | 403 kts | 112° |
| 2026-05-09 23:05 | -33.63439 | -63.62944 | 37346 ft | 403 kts | 112° |
| 2026-05-09 23:05 | -33.64484 | -63.56328 | 37343 ft | 403 kts | 112° |
| 2026-05-09 23:06 | -33.65523 | -63.49728 | 37342 ft | 403 kts | 112° |
| 2026-05-09 23:06 | -33.66561 | -63.43113 | 37376 ft | 403 kts | 111° |
| 2026-05-09 23:07 | -33.67592 | -63.36526 | 37345 ft | 403 kts | 111° |
| 2026-05-09 23:07 | -33.68622 | -63.29906 | 37335 ft | 403 kts | 111° |
| 2026-05-09 23:08 | -33.69649 | -63.23291 | 37342 ft | 403 kts | 111° |
| 2026-05-09 23:08 | -33.70680 | -63.16623 | 37333 ft | 403 kts | 111° |
| 2026-05-09 23:09 | -33.71692 | -63.10054 | 37342 ft | 403 kts | 111° |
| 2026-05-09 23:09 | -33.72710 | -63.03420 | 37335 ft | 403 kts | 111° |
| 2026-05-09 23:10 | -33.73722 | -62.96799 | 37333 ft | 403 kts | 111° |
| 2026-05-09 23:10 | -33.74732 | -62.90166 | 37330 ft | 403 kts | 111° |
| 2026-05-09 23:11 | -33.75742 | -62.83516 | 37328 ft | 403 kts | 111° |
| 2026-05-09 23:11 | -33.76746 | -62.76879 | 37340 ft | 404 kts | 111° |
| 2026-05-09 23:12 | -33.77748 | -62.70228 | 37320 ft | 405 kts | 111° |
| 2026-05-09 23:12 | -33.78747 | -62.63568 | 37337 ft | 405 kts | 111° |
| 2026-05-09 23:13 | -33.79736 | -62.56950 | 37326 ft | 405 kts | 111° |
| 2026-05-09 23:13 | -33.80730 | -62.50273 | 37335 ft | 405 kts | 111° |
| 2026-05-09 23:14 | -33.81721 | -62.43595 | 37327 ft | 406 kts | 111° |
| 2026-05-09 23:14 | -33.82708 | -62.36912 | 37321 ft | 406 kts | 111° |
| 2026-05-09 23:15 | -33.83694 | -62.30214 | 37315 ft | 406 kts | 111° |
| 2026-05-09 23:15 | -33.84676 | -62.23517 | 37316 ft | 406 kts | 111° |
| 2026-05-09 23:16 | -33.85654 | -62.16822 | 37324 ft | 407 kts | 110° |
| 2026-05-09 23:16 | -33.86631 | -62.10104 | 37316 ft | 408 kts | 110° |
| 2026-05-09 23:17 | -33.87606 | -62.03376 | 37311 ft | 408 kts | 110° |
| 2026-05-09 23:17 | -33.88571 | -61.96689 | 37308 ft | 409 kts | 110° |
| 2026-05-09 23:18 | -33.89539 | -61.89957 | 37322 ft | 409 kts | 110° |
| 2026-05-09 23:18 | -33.90508 | -61.83193 | 37314 ft | 410 kts | 110° |
| 2026-05-09 23:19 | -33.91475 | -61.76410 | 37302 ft | 411 kts | 110° |
| 2026-05-09 23:19 | -33.92438 | -61.69622 | 37301 ft | 412 kts | 110° |
| 2026-05-09 23:20 | -33.93401 | -61.62814 | 37302 ft | 412 kts | 110° |
| 2026-05-09 23:21 | -33.96269 | -61.42357 | 37292 ft | 412 kts | 110° |
| 2026-05-09 23:22 | -33.97210 | -61.35589 | 37295 ft | 412 kts | 110° |
| 2026-05-09 23:22 | -33.98154 | -61.28774 | 37296 ft | 412 kts | 110° |
| 2026-05-09 23:23 | -33.99095 | -61.21960 | 37284 ft | 412 kts | 110° |
| 2026-05-09 23:23 | -34.00030 | -61.15150 | 37298 ft | 412 kts | 110° |
| 2026-05-09 23:24 | -34.00963 | -61.08329 | 37287 ft | 413 kts | 109° |
| 2026-05-09 23:24 | -34.01895 | -61.01489 | 37291 ft | 414 kts | 109° |
| 2026-05-09 23:25 | -34.02827 | -60.94628 | 37287 ft | 416 kts | 109° |
| 2026-05-09 23:25 | -34.03762 | -60.87706 | 37288 ft | 419 kts | 109° |
| 2026-05-09 23:26 | -34.04688 | -60.80811 | 37283 ft | 420 kts | 109° |
| 2026-05-09 23:26 | -34.05619 | -60.73848 | 37302 ft | 421 kts | 109° |
| 2026-05-09 23:27 | -34.06592 | -60.66870 | 37236 ft | 420 kts | 112° |
| 2026-05-09 23:27 | -34.07418 | -60.63505 | 36761 ft | 417 kts | 117° |
| 2026-05-09 23:27 | -34.08350 | -60.60197 | 36169 ft | 415 kts | 117° |
| 2026-05-09 23:27 | -34.09297 | -60.56918 | 35616 ft | 413 kts | 117° |
| 2026-05-09 23:28 | -34.10234 | -60.53664 | 35197 ft | 408 kts | 117° |
| 2026-05-09 23:28 | -34.11151 | -60.50438 | 34758 ft | 405 kts | 117° |
| 2026-05-09 23:28 | -34.12053 | -60.47226 | 34329 ft | 401 kts | 117° |
| 2026-05-09 23:28 | -34.12936 | -60.44051 | 33867 ft | 398 kts | 116° |
| 2026-05-09 23:29 | -34.13809 | -60.40896 | 33394 ft | 395 kts | 116° |
| 2026-05-09 23:29 | -34.14669 | -60.37769 | 32926 ft | 391 kts | 116° |
| 2026-05-09 23:29 | -34.15511 | -60.34701 | 32538 ft | 386 kts | 116° |
| 2026-05-09 23:29 | -34.16351 | -60.31634 | 32105 ft | 383 kts | 116° |
| 2026-05-09 23:30 | -34.17185 | -60.28588 | 31685 ft | 380 kts | 115° |
| 2026-05-09 23:30 | -34.18011 | -60.25568 | 31282 ft | 377 kts | 115° |
| 2026-05-09 23:30 | -34.18828 | -60.22576 | 30882 ft | 375 kts | 115° |
| 2026-05-09 23:30 | -34.19646 | -60.19581 | 30481 ft | 373 kts | 115° |
| 2026-05-09 23:31 | -34.20453 | -60.16619 | 30055 ft | 370 kts | 115° |
| 2026-05-09 23:31 | -34.20985 | -60.14666 | 29748 ft | 369 kts | 115° |
| 2026-05-09 23:31 | -34.21784 | -60.11729 | 29296 ft | 366 kts | 115° |
| 2026-05-09 23:31 | -34.22570 | -60.08833 | 28892 ft | 362 kts | 115° |
| 2026-05-09 23:32 | -34.23353 | -60.05947 | 28460 ft | 359 kts | 115° |
| 2026-05-09 23:32 | -34.24127 | -60.03093 | 28058 ft | 356 kts | 115° |
| 2026-05-09 23:32 | -34.25141 | -59.99350 | 27518 ft | 352 kts | 115° |
| 2026-05-09 23:32 | -34.25653 | -59.97458 | 27249 ft | 350 kts | 115° |
| 2026-05-09 23:33 | -34.26406 | -59.94672 | 26861 ft | 347 kts | 115° |
| 2026-05-09 23:33 | -34.27154 | -59.91904 | 26471 ft | 346 kts | 115° |
| 2026-05-09 23:33 | -34.27901 | -59.89139 | 26085 ft | 345 kts | 115° |
| 2026-05-09 23:33 | -34.28645 | -59.86380 | 25710 ft | 346 kts | 114° |
| 2026-05-09 23:34 | -34.29393 | -59.83616 | 25331 ft | 355 kts | 114° |
| 2026-05-09 23:34 | -34.30166 | -59.80758 | 24885 ft | 359 kts | 114° |
| 2026-05-09 23:34 | -34.30939 | -59.77880 | 24482 ft | 357 kts | 114° |
| 2026-05-09 23:34 | -34.31701 | -59.75034 | 24070 ft | 356 kts | 114° |
| 2026-05-09 23:35 | -34.32461 | -59.72193 | 23626 ft | 354 kts | 114° |
| 2026-05-09 23:35 | -34.33218 | -59.69361 | 23164 ft | 351 kts | 114° |
| 2026-05-09 23:35 | -34.33965 | -59.66561 | 22739 ft | 348 kts | 114° |
| 2026-05-09 23:35 | -34.34706 | -59.63785 | 22336 ft | 345 kts | 114° |
| 2026-05-09 23:36 | -34.35440 | -59.61032 | 21929 ft | 342 kts | 114° |
| 2026-05-09 23:36 | -34.36168 | -59.58301 | 21548 ft | 340 kts | 113° |
| 2026-05-09 23:36 | -34.36892 | -59.55586 | 21152 ft | 337 kts | 113° |
| 2026-05-09 23:36 | -34.37609 | -59.52890 | 20770 ft | 335 kts | 114° |
| 2026-05-09 23:37 | -34.38318 | -59.50224 | 20376 ft | 333 kts | 114° |
| 2026-05-09 23:37 | -34.39027 | -59.47557 | 20003 ft | 331 kts | 114° |
| 2026-05-09 23:37 | -34.39728 | -59.44917 | 19617 ft | 329 kts | 114° |
| 2026-05-09 23:37 | -34.40426 | -59.42287 | 19247 ft | 328 kts | 114° |
| 2026-05-09 23:38 | -34.41122 | -59.39658 | 18870 ft | 326 kts | 114° |
| 2026-05-09 23:38 | -34.41813 | -59.37051 | 18475 ft | 325 kts | 114° |
| 2026-05-09 23:38 | -34.42502 | -59.34444 | 18057 ft | 324 kts | 114° |
| 2026-05-09 23:38 | -34.43185 | -59.31858 | 17658 ft | 322 kts | 114° |
| 2026-05-09 23:39 | -34.43864 | -59.29284 | 17267 ft | 320 kts | 114° |
| 2026-05-09 23:39 | -34.44541 | -59.26716 | 16888 ft | 318 kts | 114° |
| 2026-05-09 23:39 | -34.45209 | -59.24179 | 16518 ft | 316 kts | 114° |
| 2026-05-09 23:39 | -34.45869 | -59.21671 | 16151 ft | 314 kts | 114° |
| 2026-05-09 23:40 | -34.46559 | -59.19044 | 15769 ft | 312 kts | 114° |
| 2026-05-09 23:40 | -34.47209 | -59.16569 | 15406 ft | 311 kts | 114° |
| 2026-05-09 23:40 | -34.47840 | -59.14167 | 15060 ft | 309 kts | 114° |
| 2026-05-09 23:40 | -34.48491 | -59.11684 | 14707 ft | 308 kts | 114° |
| 2026-05-09 23:41 | -34.49139 | -59.09207 | 14345 ft | 307 kts | 114° |
| 2026-05-09 23:41 | -34.49784 | -59.06744 | 13969 ft | 307 kts | 114° |
| 2026-05-09 23:41 | -34.50428 | -59.04282 | 13565 ft | 306 kts | 114° |
| 2026-05-09 23:41 | -34.51070 | -59.01826 | 13177 ft | 305 kts | 113° |
| 2026-05-09 23:42 | -34.51708 | -58.99380 | 12792 ft | 303 kts | 113° |
| 2026-05-09 23:42 | -34.52344 | -58.96942 | 12425 ft | 302 kts | 113° |
| 2026-05-09 23:42 | -34.52974 | -58.94522 | 12061 ft | 301 kts | 113° |
| 2026-05-09 23:42 | -34.53604 | -58.92100 | 11700 ft | 300 kts | 112° |
| 2026-05-09 23:43 | -34.54230 | -58.89693 | 11347 ft | 299 kts | 112° |
| 2026-05-09 23:43 | -34.54852 | -58.87298 | 10985 ft | 298 kts | 112° |
| 2026-05-09 23:43 | -34.55479 | -58.84887 | 10614 ft | 298 kts | 112° |
| 2026-05-09 23:43 | -34.56083 | -58.82554 | 10409 ft | 292 kts | 112° |
| 2026-05-09 23:44 | -34.56681 | -58.80237 | 10262 ft | 284 kts | 112° |
| 2026-05-09 23:44 | -34.57263 | -58.77982 | 10082 ft | 278 kts | 112° |
| 2026-05-09 23:44 | -34.57843 | -58.75740 | 9768 ft | 277 kts | 112° |
| 2026-05-09 23:45 | -34.58991 | -58.71301 | 9178 ft | 273 kts | 112° |
| 2026-05-09 23:45 | -34.59559 | -58.69099 | 8889 ft | 272 kts | 112° |
| 2026-05-09 23:45 | -34.60122 | -58.66918 | 8604 ft | 270 kts | 112° |
| 2026-05-09 23:45 | -34.60682 | -58.64744 | 8321 ft | 269 kts | 112° |
| 2026-05-09 23:46 | -34.61229 | -58.62619 | 8039 ft | 268 kts | 112° |
| 2026-05-09 23:46 | -34.61783 | -58.60466 | 7765 ft | 266 kts | 112° |
| 2026-05-09 23:46 | -34.62332 | -58.58328 | 7489 ft | 265 kts | 112° |
| 2026-05-09 23:46 | -34.62880 | -58.56194 | 7213 ft | 264 kts | 112° |
| 2026-05-09 23:47 | -34.63428 | -58.54058 | 6931 ft | 263 kts | 112° |
| 2026-05-09 23:47 | -34.63972 | -58.51936 | 6646 ft | 264 kts | 112° |
| 2026-05-09 23:47 | -34.64512 | -58.49830 | 6377 ft | 265 kts | 112° |
| 2026-05-09 23:47 | -34.65075 | -58.47630 | 6080 ft | 265 kts | 112° |
| 2026-05-09 23:48 | -34.65622 | -58.45491 | 5762 ft | 265 kts | 112° |
| 2026-05-09 23:48 | -34.66166 | -58.43359 | 5457 ft | 264 kts | 112° |
| 2026-05-09 23:48 | -34.66711 | -58.41222 | 5119 ft | 264 kts | 112° |
| 2026-05-09 23:49 | -34.67792 | -58.36982 | 4497 ft | 263 kts | 113° |
| 2026-05-09 23:49 | -34.68329 | -58.34871 | 4280 ft | 258 kts | 114° |
| 2026-05-09 23:49 | -34.68849 | -58.32819 | 4155 ft | 251 kts | 114° |
| 2026-05-09 23:49 | -34.69355 | -58.30823 | 4044 ft | 243 kts | 115° |
| 2026-05-09 23:50 | -34.69845 | -58.28887 | 3933 ft | 235 kts | 115° |
| 2026-05-09 23:50 | -34.70113 | -58.26933 | 3797 ft | 240 kts | 90° |
| 2026-05-09 23:50 | -34.69450 | -58.25057 | 3579 ft | 251 kts | 50° |
| 2026-05-09 23:50 | -34.67963 | -58.23999 | 3349 ft | 249 kts | 7° |
| 2026-05-09 23:51 | -34.66347 | -58.24232 | 3213 ft | 226 kts | 324° |
| 2026-05-09 23:51 | -34.65198 | -58.25422 | 3007 ft | 214 kts | 302° |
| 2026-05-09 23:51 | -34.64247 | -58.26809 | 2739 ft | 212 kts | 298° |
| 2026-05-09 23:51 | -34.63381 | -58.28241 | 2448 ft | 207 kts | 296° |
| 2026-05-09 23:52 | -34.62587 | -58.29636 | 2169 ft | 195 kts | 294° |
| 2026-05-09 23:52 | -34.61859 | -58.30933 | 1925 ft | 181 kts | 294° |
| 2026-05-09 23:52 | -34.61180 | -58.32148 | 1720 ft | 165 kts | 294° |
| 2026-05-09 23:52 | -34.60571 | -58.33235 | 1477 ft | 147 kts | 292° |
| 2026-05-09 23:53 | -34.60015 | -58.34235 | 1298 ft | 140 kts | 292° |
| 2026-05-09 23:53 | -34.59478 | -58.35202 | 1121 ft | 136 kts | 293° |
| 2026-05-09 23:53 | -34.58949 | -58.36155 | 948 ft | 137 kts | 295° |
| 2026-05-09 23:53 | -34.58400 | -58.37140 | 773 ft | 142 kts | 299° |
| 2026-05-09 23:54 | -34.57846 | -58.38132 | 577 ft | 142 kts | 301° |
| 2026-05-09 23:54 | -34.57297 | -58.39113 | 393 ft | 144 kts | 302° |
| 2026-05-09 23:54 | -34.56735 | -58.40117 | 176 ft | 143 kts | 301° |
| 2026-05-09 23:54 | -34.56196 | -58.41092 | 27 ft | 132 kts | 301° |
| 2026-05-09 23:55 | -34.55807 | -58.41795 | 24 ft | 72 kts | 303° |
| 2026-05-09 23:55 | -34.55642 | -58.42096 | 29 ft | 37 kts | 303° |
| 2026-05-09 23:55 | -34.55502 | -58.42337 | 27 ft | 33 kts | 304° |
| 2026-05-09 23:55 | -34.55395 | -58.42500 | 25 ft | 13 kts | 357° |
| 2026-05-09 23:56 | -34.55366 | -58.42412 | 24 ft | 13 kts | 99° |
| 2026-05-09 23:56 | -34.55403 | -58.42318 | 24 ft | 12 kts | 129° |
| 2026-05-09 23:56 | -34.55456 | -58.42237 | 26 ft | 12 kts | 127° |
| 2026-05-09 23:56 | -34.55506 | -58.42156 | 24 ft | 12 kts | 127° |
| 2026-05-09 23:57 | -34.55555 | -58.42077 | 28 ft | 12 kts | 127° |
| 2026-05-09 23:57 | -34.55601 | -58.41999 | 25 ft | 11 kts | 124° |
| 2026-05-09 23:57 | -34.55644 | -58.41922 | 27 ft | 11 kts | 124° |
| 2026-05-09 23:57 | -34.55636 | -58.41857 | 28 ft | 9 kts | 36° |
| 2026-05-09 23:58 | -34.55613 | -58.41796 | 24 ft | 9 kts | 116° |
| 2026-05-09 23:58 | -34.55645 | -58.41737 | 24 ft | 0 kts | 124° |
| 2026-05-09 23:58 | -34.55645 | -58.41736 | 24 ft | 0 kts | 124° |
| 2026-05-09 23:59 | -34.55646 | -58.41735 | 24 ft | 0 kts | 124° |
| 2026-05-09 23:59 | -34.55661 | -58.41708 | 24 ft | 9 kts | 124° |
| 2026-05-09 23:59 | -34.55701 | -58.41636 | 26 ft | 11 kts | 123° |
| 2026-05-10 00:00 | -34.55727 | -58.41587 | 28 ft | 10 kts | 129° |
| 2026-05-10 00:00 | -34.55790 | -58.41614 | 24 ft | 8 kts | 253° |
| 2026-05-10 00:00 | -34.55769 | -58.41677 | 26 ft | 8 kts | 296° |
| 2026-05-10 00:00 | -34.55744 | -58.41737 | 26 ft | 8 kts | 297° |
| 2026-05-10 00:01 | -34.55716 | -58.41793 | 28 ft | 8 kts | 303° |
| 2026-05-10 00:01 | -34.55688 | -58.41846 | 27 ft | 7 kts | 304° |
| 2026-05-10 00:01 | -34.55646 | -58.41868 | 26 ft | 7 kts | 24° |
| 2026-05-10 00:01 | -34.55610 | -58.41829 | 26 ft | 7 kts | 65° |
| 2026-05-10 00:02 | -34.55601 | -58.41773 | 29 ft | 7 kts | 47° |
| 2026-05-10 00:02 | -34.55561 | -58.41740 | 24 ft | 7 kts | 34° |
| 2026-05-10 00:02 | -34.55542 | -58.41725 | 24 ft | 2 kts | 34° |
| 2026-05-10 00:02 | -34.55542 | -58.41724 | 24 ft | 0 kts | 34° |